sensor_id;sensor_type;location;lat;lon;timestamp;temperature;humidity
52656;SHT85;35474;51.032;6.998;2022-09-30T00:00:34;6.91;88.84
52656;SHT85;35474;51.032;6.998;2022-09-30T00:03:02;6.99;88.56
52656;SHT85;35474;51.032;6.998;2022-09-30T00:05:29;6.95;88.69
52656;SHT85;35474;51.032;6.998;2022-09-30T00:07:55;6.92;88.57
52656;SHT85;35474;51.032;6.998;2022-09-30T00:10:22;6.91;88.88
52656;SHT85;35474;51.032;6.998;2022-09-30T00:12:50;6.93;89.00
52656;SHT85;35474;51.032;6.998;2022-09-30T00:15:17;6.91;88.84
52656;SHT85;35474;51.032;6.998;2022-09-30T00:17:45;6.97;88.96
52656;SHT85;35474;51.032;6.998;2022-09-30T00:20:11;6.84;88.99
52656;SHT85;35474;51.032;6.998;2022-09-30T00:22:38;6.82;88.91
52656;SHT85;35474;51.032;6.998;2022-09-30T00:25:05;6.81;88.49
52656;SHT85;35474;51.032;6.998;2022-09-30T00:27:31;6.82;89.25
52656;SHT85;35474;51.032;6.998;2022-09-30T00:29:58;6.75;89.03
52656;SHT85;35474;51.032;6.998;2022-09-30T00:32:24;6.71;89.29
52656;SHT85;35474;51.032;6.998;2022-09-30T00:34:51;6.68;89.12
52656;SHT85;35474;51.032;6.998;2022-09-30T00:37:17;6.65;89.13
52656;SHT85;35474;51.032;6.998;2022-09-30T00:39:44;6.61;89.56
52656;SHT85;35474;51.032;6.998;2022-09-30T00:42:12;6.72;89.01
52656;SHT85;35474;51.032;6.998;2022-09-30T00:44:51;6.74;89.37
52656;SHT85;35474;51.032;6.998;2022-09-30T00:50:17;6.49;89.38
52656;SHT85;35474;51.032;6.998;2022-09-30T00:53:08;6.45;89.43
52656;SHT85;35474;51.032;6.998;2022-09-30T01:01:19;6.54;89.19
52656;SHT85;35474;51.032;6.998;2022-09-30T01:03:51;6.44;89.39
52656;SHT85;35474;51.032;6.998;2022-09-30T01:06:22;6.42;89.30
52656;SHT85;35474;51.032;6.998;2022-09-30T01:08:50;6.31;89.23
52656;SHT85;35474;51.032;6.998;2022-09-30T01:11:16;6.40;89.22
52656;SHT85;35474;51.032;6.998;2022-09-30T01:13:44;6.47;89.07
52656;SHT85;35474;51.032;6.998;2022-09-30T01:16:31;6.42;88.77
52656;SHT85;35474;51.032;6.998;2022-09-30T01:36:15;6.10;89.53
52656;SHT85;35474;51.032;6.998;2022-09-30T01:38:53;6.00;89.31
52656;SHT85;35474;51.032;6.998;2022-09-30T01:50:07;6.18;89.62
52656;SHT85;35474;51.032;6.998;2022-09-30T01:55:26;6.03;89.70
52656;SHT85;35474;51.032;6.998;2022-09-30T01:58:35;6.09;89.55
52656;SHT85;35474;51.032;6.998;2022-09-30T02:01:02;6.03;89.73
52656;SHT85;35474;51.032;6.998;2022-09-30T02:03:43;5.97;89.72
52656;SHT85;35474;51.032;6.998;2022-09-30T02:06:21;5.93;89.63
52656;SHT85;35474;51.032;6.998;2022-09-30T02:08:56;5.89;89.84
52656;SHT85;35474;51.032;6.998;2022-09-30T02:11:27;5.73;89.79
52656;SHT85;35474;51.032;6.998;2022-09-30T02:14:05;5.86;90.00
52656;SHT85;35474;51.032;6.998;2022-09-30T02:16:38;5.80;89.89
52656;SHT85;35474;51.032;6.998;2022-09-30T02:19:21;5.75;89.82
52656;SHT85;35474;51.032;6.998;2022-09-30T02:21:58;5.69;90.12
52656;SHT85;35474;51.032;6.998;2022-09-30T02:24:29;5.77;90.10
52656;SHT85;35474;51.032;6.998;2022-09-30T02:27:08;5.75;90.02
52656;SHT85;35474;51.032;6.998;2022-09-30T02:29:44;5.73;89.85
52656;SHT85;35474;51.032;6.998;2022-09-30T02:32:24;5.73;90.01
52656;SHT85;35474;51.032;6.998;2022-09-30T02:34:57;5.79;89.95
52656;SHT85;35474;51.032;6.998;2022-09-30T02:37:31;5.65;89.61
52656;SHT85;35474;51.032;6.998;2022-09-30T02:40:07;5.67;89.88
52656;SHT85;35474;51.032;6.998;2022-09-30T02:42:39;5.82;90.23
52656;SHT85;35474;51.032;6.998;2022-09-30T02:45:09;5.72;89.89
52656;SHT85;35474;51.032;6.998;2022-09-30T02:50:43;5.82;90.10
52656;SHT85;35474;51.032;6.998;2022-09-30T02:53:24;5.69;89.94
52656;SHT85;35474;51.032;6.998;2022-09-30T02:58:34;5.66;90.09
52656;SHT85;35474;51.032;6.998;2022-09-30T03:01:05;5.63;89.66
52656;SHT85;35474;51.032;6.998;2022-09-30T03:03:45;5.67;90.27
52656;SHT85;35474;51.032;6.998;2022-09-30T03:06:16;5.66;90.10
52656;SHT85;35474;51.032;6.998;2022-09-30T03:08:42;5.58;90.12
52656;SHT85;35474;51.032;6.998;2022-09-30T03:11:14;5.60;90.19
52656;SHT85;35474;51.032;6.998;2022-09-30T03:14:03;5.49;90.24
52656;SHT85;35474;51.032;6.998;2022-09-30T03:30:30;5.48;90.32
52656;SHT85;35474;51.032;6.998;2022-09-30T03:36:19;5.44;90.57
52656;SHT85;35474;51.032;6.998;2022-09-30T03:44:30;5.31;90.43
52656;SHT85;35474;51.032;6.998;2022-09-30T03:47:02;5.30;90.65
52656;SHT85;35474;51.032;6.998;2022-09-30T03:49:35;5.20;90.56
52656;SHT85;35474;51.032;6.998;2022-09-30T03:52:11;5.31;90.39
52656;SHT85;35474;51.032;6.998;2022-09-30T03:55:13;5.31;90.53
52656;SHT85;35474;51.032;6.998;2022-09-30T03:57:36;5.23;90.60
52656;SHT85;35474;51.032;6.998;2022-09-30T04:00:03;5.42;90.54
52656;SHT85;35474;51.032;6.998;2022-09-30T04:02:32;5.34;90.39
52656;SHT85;35474;51.032;6.998;2022-09-30T04:05:01;5.41;90.28
52656;SHT85;35474;51.032;6.998;2022-09-30T04:07:28;5.27;90.56
52656;SHT85;35474;51.032;6.998;2022-09-30T04:09:54;5.30;90.72
52656;SHT85;35474;51.032;6.998;2022-09-30T04:12:21;5.24;90.75
52656;SHT85;35474;51.032;6.998;2022-09-30T04:14:48;5.24;90.61
52656;SHT85;35474;51.032;6.998;2022-09-30T04:17:14;5.32;90.81
52656;SHT85;35474;51.032;6.998;2022-09-30T04:19:41;5.27;90.77
52656;SHT85;35474;51.032;6.998;2022-09-30T04:22:08;5.25;90.59
52656;SHT85;35474;51.032;6.998;2022-09-30T04:24:35;5.14;90.95
52656;SHT85;35474;51.032;6.998;2022-09-30T04:27:02;5.16;91.16
52656;SHT85;35474;51.032;6.998;2022-09-30T04:29:28;5.16;91.31
52656;SHT85;35474;51.032;6.998;2022-09-30T04:31:55;5.20;91.41
52656;SHT85;35474;51.032;6.998;2022-09-30T04:34:22;5.10;91.17
52656;SHT85;35474;51.032;6.998;2022-09-30T04:36:48;5.17;91.14
52656;SHT85;35474;51.032;6.998;2022-09-30T04:39:15;5.13;91.22
52656;SHT85;35474;51.032;6.998;2022-09-30T04:41:41;5.13;91.10
52656;SHT85;35474;51.032;6.998;2022-09-30T04:44:08;5.14;91.19
52656;SHT85;35474;51.032;6.998;2022-09-30T04:46:35;5.10;91.25
52656;SHT85;35474;51.032;6.998;2022-09-30T04:49:03;5.04;91.39
52656;SHT85;35474;51.032;6.998;2022-09-30T04:51:34;5.13;91.13
52656;SHT85;35474;51.032;6.998;2022-09-30T04:54:01;5.07;91.08
52656;SHT85;35474;51.032;6.998;2022-09-30T04:56:28;5.20;91.30
52656;SHT85;35474;51.032;6.998;2022-09-30T04:58:54;5.16;91.23
52656;SHT85;35474;51.032;6.998;2022-09-30T05:01:21;5.14;91.25
52656;SHT85;35474;51.032;6.998;2022-09-30T05:03:47;5.20;90.82
52656;SHT85;35474;51.032;6.998;2022-09-30T05:06:15;5.01;90.87
52656;SHT85;35474;51.032;6.998;2022-09-30T05:08:42;5.10;91.18
52656;SHT85;35474;51.032;6.998;2022-09-30T05:11:16;5.10;91.28
52656;SHT85;35474;51.032;6.998;2022-09-30T05:13:44;5.04;91.22
52656;SHT85;35474;51.032;6.998;2022-09-30T05:16:11;5.01;91.39
52656;SHT85;35474;51.032;6.998;2022-09-30T05:18:39;4.87;91.64
52656;SHT85;35474;51.032;6.998;2022-09-30T05:21:08;4.91;91.83
52656;SHT85;35474;51.032;6.998;2022-09-30T05:23:35;4.83;91.88
52656;SHT85;35474;51.032;6.998;2022-09-30T05:26:01;4.84;91.91
52656;SHT85;35474;51.032;6.998;2022-09-30T05:28:29;4.94;92.04
52656;SHT85;35474;51.032;6.998;2022-09-30T05:30:57;4.84;92.03
52656;SHT85;35474;51.032;6.998;2022-09-30T05:33:25;4.80;91.96
52656;SHT85;35474;51.032;6.998;2022-09-30T05:35:54;4.77;92.04
52656;SHT85;35474;51.032;6.998;2022-09-30T05:38:25;4.79;92.19
52656;SHT85;35474;51.032;6.998;2022-09-30T05:40:52;4.88;92.26
52656;SHT85;35474;51.032;6.998;2022-09-30T05:43:20;4.84;92.09
52656;SHT85;35474;51.032;6.998;2022-09-30T05:45:50;4.83;91.98
52656;SHT85;35474;51.032;6.998;2022-09-30T05:48:23;4.76;91.71
52656;SHT85;35474;51.032;6.998;2022-09-30T05:50:54;4.81;91.72
52656;SHT85;35474;51.032;6.998;2022-09-30T05:53:22;5.00;92.02
52656;SHT85;35474;51.032;6.998;2022-09-30T05:55:50;4.98;91.92
52656;SHT85;35474;51.032;6.998;2022-09-30T05:58:17;5.01;91.85
52656;SHT85;35474;51.032;6.998;2022-09-30T06:00:44;5.13;91.23
52656;SHT85;35474;51.032;6.998;2022-09-30T06:03:12;5.11;91.47
52656;SHT85;35474;51.032;6.998;2022-09-30T06:05:39;5.25;91.76
52656;SHT85;35474;51.032;6.998;2022-09-30T06:08:06;5.27;91.78
52656;SHT85;35474;51.032;6.998;2022-09-30T06:10:33;5.25;91.39
52656;SHT85;35474;51.032;6.998;2022-09-30T06:13:04;5.20;91.28
52656;SHT85;35474;51.032;6.998;2022-09-30T06:15:30;5.14;91.26
52656;SHT85;35474;51.032;6.998;2022-09-30T06:17:58;5.23;91.38
52656;SHT85;35474;51.032;6.998;2022-09-30T06:20:24;5.14;91.38
52656;SHT85;35474;51.032;6.998;2022-09-30T06:22:51;5.30;91.30
52656;SHT85;35474;51.032;6.998;2022-09-30T06:25:17;5.30;91.18
52656;SHT85;35474;51.032;6.998;2022-09-30T06:27:44;5.31;91.17
52656;SHT85;35474;51.032;6.998;2022-09-30T06:32:35;5.42;91.13
52656;SHT85;35474;51.032;6.998;2022-09-30T06:35:02;5.41;91.02
52656;SHT85;35474;51.032;6.998;2022-09-30T06:37:29;5.46;91.18
52656;SHT85;35474;51.032;6.998;2022-09-30T06:39:55;5.63;90.88
52656;SHT85;35474;51.032;6.998;2022-09-30T06:42:22;5.82;90.75
52656;SHT85;35474;51.032;6.998;2022-09-30T06:44:49;6.03;91.01
52656;SHT85;35474;51.032;6.998;2022-09-30T06:47:18;6.54;90.08
52656;SHT85;35474;51.032;6.998;2022-09-30T06:49:50;6.60;87.98
52656;SHT85;35474;51.032;6.998;2022-09-30T06:52:18;7.27;87.41
52656;SHT85;35474;51.032;6.998;2022-09-30T06:54:45;7.44;85.03
52656;SHT85;35474;51.032;6.998;2022-09-30T06:57:12;7.55;84.89
52656;SHT85;35474;51.032;6.998;2022-09-30T06:59:38;7.85;84.53
52656;SHT85;35474;51.032;6.998;2022-09-30T07:02:05;7.98;83.45
52656;SHT85;35474;51.032;6.998;2022-09-30T07:04:32;7.79;83.65
52656;SHT85;35474;51.032;6.998;2022-09-30T07:06:58;7.84;83.81
52656;SHT85;35474;51.032;6.998;2022-09-30T07:09:25;8.13;82.42
52656;SHT85;35474;51.032;6.998;2022-09-30T07:11:51;8.32;81.72
52656;SHT85;35474;51.032;6.998;2022-09-30T07:14:18;7.93;82.03
52656;SHT85;35474;51.032;6.998;2022-09-30T07:16:44;8.46;83.16
52656;SHT85;35474;51.032;6.998;2022-09-30T07:19:11;8.39;81.59
52656;SHT85;35474;51.032;6.998;2022-09-30T07:21:38;8.39;81.48
52656;SHT85;35474;51.032;6.998;2022-09-30T07:24:06;8.70;80.47
52656;SHT85;35474;51.032;6.998;2022-09-30T07:26:34;8.70;80.64
52656;SHT85;35474;51.032;6.998;2022-09-30T07:29:00;8.89;80.62
52656;SHT85;35474;51.032;6.998;2022-09-30T07:31:27;9.08;79.22
52656;SHT85;35474;51.032;6.998;2022-09-30T07:34:00;8.87;80.72
52656;SHT85;35474;51.032;6.998;2022-09-30T07:36:28;9.23;80.16
52656;SHT85;35474;51.032;6.998;2022-09-30T07:38:59;9.43;79.12
52656;SHT85;35474;51.032;6.998;2022-09-30T07:41:31;9.86;77.59
52656;SHT85;35474;51.032;6.998;2022-09-30T07:43:59;9.87;77.23
52656;SHT85;35474;51.032;6.998;2022-09-30T07:46:27;9.67;77.75
52656;SHT85;35474;51.032;6.998;2022-09-30T07:48:56;9.80;78.04
52656;SHT85;35474;51.032;6.998;2022-09-30T07:51:34;10.18;76.60
52656;SHT85;35474;51.032;6.998;2022-09-30T07:54:04;11.01;74.85
52656;SHT85;35474;51.032;6.998;2022-09-30T07:56:36;12.07;71.14
52656;SHT85;35474;51.032;6.998;2022-09-30T07:59:24;11.69;69.91
52656;SHT85;35474;51.032;6.998;2022-09-30T08:01:52;11.78;69.27
52656;SHT85;35474;51.032;6.998;2022-09-30T08:04:19;11.39;71.98
52656;SHT85;35474;51.032;6.998;2022-09-30T08:06:48;10.84;73.74
52656;SHT85;35474;51.032;6.998;2022-09-30T08:09:18;11.23;72.19
52656;SHT85;35474;51.032;6.998;2022-09-30T08:11:46;11.63;72.01
52656;SHT85;35474;51.032;6.998;2022-09-30T08:14:17;10.93;73.90
52656;SHT85;35474;51.032;6.998;2022-09-30T08:16:46;11.20;73.17
52656;SHT85;35474;51.032;6.998;2022-09-30T08:19:14;11.17;73.18
52656;SHT85;35474;51.032;6.998;2022-09-30T08:21:43;11.99;70.85
52656;SHT85;35474;51.032;6.998;2022-09-30T08:24:11;12.30;69.94
52656;SHT85;35474;51.032;6.998;2022-09-30T08:26:38;11.88;70.01
52656;SHT85;35474;51.032;6.998;2022-09-30T08:29:06;11.68;71.45
52656;SHT85;35474;51.032;6.998;2022-09-30T08:31:32;11.78;70.16
52656;SHT85;35474;51.032;6.998;2022-09-30T08:33:59;12.21;70.42
52656;SHT85;35474;51.032;6.998;2022-09-30T08:36:28;13.23;66.82
52656;SHT85;35474;51.032;6.998;2022-09-30T08:38:55;13.02;66.57
52656;SHT85;35474;51.032;6.998;2022-09-30T08:41:27;12.86;67.25
52656;SHT85;35474;51.032;6.998;2022-09-30T08:47:06;14.70;62.27
52656;SHT85;35474;51.032;6.998;2022-09-30T08:52:44;14.90;61.66
52656;SHT85;35474;51.032;6.998;2022-09-30T08:55:28;13.37;65.11
52656;SHT85;35474;51.032;6.998;2022-09-30T08:58:01;13.51;65.82
52656;SHT85;35474;51.032;6.998;2022-09-30T09:00:29;13.63;65.43
52656;SHT85;35474;51.032;6.998;2022-09-30T09:02:57;14.25;64.36
52656;SHT85;35474;51.032;6.998;2022-09-30T09:05:36;15.35;60.50
52656;SHT85;35474;51.032;6.998;2022-09-30T09:11:18;15.27;61.32
52656;SHT85;35474;51.032;6.998;2022-09-30T09:17:00;16.18;56.75
52656;SHT85;35474;51.032;6.998;2022-09-30T09:22:30;16.69;55.63
52656;SHT85;35474;51.032;6.998;2022-09-30T09:24:57;17.44;54.23
52656;SHT85;35474;51.032;6.998;2022-09-30T09:27:35;16.76;56.76
52656;SHT85;35474;51.032;6.998;2022-09-30T09:30:08;16.22;57.26
52656;SHT85;35474;51.032;6.998;2022-09-30T09:32:37;16.80;56.86
52656;SHT85;35474;51.032;6.998;2022-09-30T09:35:20;17.67;53.60
52656;SHT85;35474;51.032;6.998;2022-09-30T09:38:07;17.00;55.36
52656;SHT85;35474;51.032;6.998;2022-09-30T09:54:36;18.60;51.49
52656;SHT85;35474;51.032;6.998;2022-09-30T09:57:06;18.02;52.60
52656;SHT85;35474;51.032;6.998;2022-09-30T09:59:36;19.14;49.69
52656;SHT85;35474;51.032;6.998;2022-09-30T10:02:20;17.59;53.72
52656;SHT85;35474;51.032;6.998;2022-09-30T10:04:50;17.53;54.08
52656;SHT85;35474;51.032;6.998;2022-09-30T10:07:25;18.99;50.76
52656;SHT85;35474;51.032;6.998;2022-09-30T10:12:49;18.70;50.15
52656;SHT85;35474;51.032;6.998;2022-09-30T10:15:22;16.92;54.70
52656;SHT85;35474;51.032;6.998;2022-09-30T10:17:55;18.51;51.83
52656;SHT85;35474;51.032;6.998;2022-09-30T10:20:25;19.52;48.97
52656;SHT85;35474;51.032;6.998;2022-09-30T10:23:01;19.38;49.51
52656;SHT85;35474;51.032;6.998;2022-09-30T10:25:35;20.97;46.10
52656;SHT85;35474;51.032;6.998;2022-09-30T10:28:02;20.48;45.54
52656;SHT85;35474;51.032;6.998;2022-09-30T10:30:47;18.73;49.55
52656;SHT85;35474;51.032;6.998;2022-09-30T10:33:19;18.53;51.25
52656;SHT85;35474;51.032;6.998;2022-09-30T10:35:59;17.94;51.34
52656;SHT85;35474;51.032;6.998;2022-09-30T10:38:29;18.44;51.32
52656;SHT85;35474;51.032;6.998;2022-09-30T10:41:00;20.00;48.10
52656;SHT85;35474;51.032;6.998;2022-09-30T10:43:47;20.07;46.96
52656;SHT85;35474;51.032;6.998;2022-09-30T10:46:21;18.64;50.66
52656;SHT85;35474;51.032;6.998;2022-09-30T10:48:57;19.39;47.76
52656;SHT85;35474;51.032;6.998;2022-09-30T10:51:28;20.39;45.23
52656;SHT85;35474;51.032;6.998;2022-09-30T10:54:00;18.50;48.68
52656;SHT85;35474;51.032;6.998;2022-09-30T10:59:13;18.75;48.30
52656;SHT85;35474;51.032;6.998;2022-09-30T11:07:40;21.06;42.48
52656;SHT85;35474;51.032;6.998;2022-09-30T11:12:54;19.85;43.89
52656;SHT85;35474;51.032;6.998;2022-09-30T11:15:34;19.49;45.85
52656;SHT85;35474;51.032;6.998;2022-09-30T11:18:41;18.27;47.99
52656;SHT85;35474;51.032;6.998;2022-09-30T11:21:11;17.67;48.74
52656;SHT85;35474;51.032;6.998;2022-09-30T11:38:08;18.85;46.15
52656;SHT85;35474;51.032;6.998;2022-09-30T11:40:46;18.23;47.50
52656;SHT85;35474;51.032;6.998;2022-09-30T11:57:52;22.05;40.65
52656;SHT85;35474;51.032;6.998;2022-09-30T12:00:49;20.38;43.87
52656;SHT85;35474;51.032;6.998;2022-09-30T12:03:56;20.53;42.73
52656;SHT85;35474;51.032;6.998;2022-09-30T12:06:38;20.84;42.68
52656;SHT85;35474;51.032;6.998;2022-09-30T12:09:14;21.44;41.75
52656;SHT85;35474;51.032;6.998;2022-09-30T12:11:51;20.80;42.61
52656;SHT85;35474;51.032;6.998;2022-09-30T12:14:35;21.51;41.00
52656;SHT85;35474;51.032;6.998;2022-09-30T12:17:10;20.29;43.32
52656;SHT85;35474;51.032;6.998;2022-09-30T12:19:46;21.54;41.67
52656;SHT85;35474;51.032;6.998;2022-09-30T12:22:17;20.29;43.51
52656;SHT85;35474;51.032;6.998;2022-09-30T12:24:50;20.31;43.58
52656;SHT85;35474;51.032;6.998;2022-09-30T12:30:32;19.97;44.45
52656;SHT85;35474;51.032;6.998;2022-09-30T12:49:11;20.25;42.74
52656;SHT85;35474;51.032;6.998;2022-09-30T12:51:48;19.25;45.06
52656;SHT85;35474;51.032;6.998;2022-09-30T12:54:19;19.45;44.56
52656;SHT85;35474;51.032;6.998;2022-09-30T12:57:07;20.00;42.95
52656;SHT85;35474;51.032;6.998;2022-09-30T12:59:35;19.88;43.36
52656;SHT85;35474;51.032;6.998;2022-09-30T13:02:25;19.28;44.27
52656;SHT85;35474;51.032;6.998;2022-09-30T13:10:55;19.22;43.33
52656;SHT85;35474;51.032;6.998;2022-09-30T13:13:26;19.28;43.00
52656;SHT85;35474;51.032;6.998;2022-09-30T13:15:57;20.65;41.05
52656;SHT85;35474;51.032;6.998;2022-09-30T13:36:28;21.69;39.14
52656;SHT85;35474;51.032;6.998;2022-09-30T13:44:34;22.61;38.13
52656;SHT85;35474;51.032;6.998;2022-09-30T13:48:08;22.74;37.01
52656;SHT85;35474;51.032;6.998;2022-09-30T13:52:47;23.08;35.81
52656;SHT85;35474;51.032;6.998;2022-09-30T13:55:20;21.60;37.17
52656;SHT85;35474;51.032;6.998;2022-09-30T13:57:53;19.80;40.44
52656;SHT85;35474;51.032;6.998;2022-09-30T14:18:37;19.02;41.60
52656;SHT85;35474;51.032;6.998;2022-09-30T14:24:15;18.06;44.02
52656;SHT85;35474;51.032;6.998;2022-09-30T14:29:27;17.92;43.60
52656;SHT85;35474;51.032;6.998;2022-09-30T14:32:27;18.41;43.06
52656;SHT85;35474;51.032;6.998;2022-09-30T14:34:59;19.53;40.96
52656;SHT85;35474;51.032;6.998;2022-09-30T14:37:32;20.17;38.76
52656;SHT85;35474;51.032;6.998;2022-09-30T14:40:07;19.62;38.51
52656;SHT85;35474;51.032;6.998;2022-09-30T14:42:39;19.42;39.72
52656;SHT85;35474;51.032;6.998;2022-09-30T14:45:07;19.81;39.76
52656;SHT85;35474;51.032;6.998;2022-09-30T14:47:36;19.85;38.96
52656;SHT85;35474;51.032;6.998;2022-09-30T14:50:24;19.85;38.80
52656;SHT85;35474;51.032;6.998;2022-09-30T14:52:53;18.87;40.53
52656;SHT85;35474;51.032;6.998;2022-09-30T14:58:18;18.26;41.81
52656;SHT85;35474;51.032;6.998;2022-09-30T15:00:55;18.40;41.88
52656;SHT85;35474;51.032;6.998;2022-09-30T15:03:26;18.13;42.65
52656;SHT85;35474;51.032;6.998;2022-09-30T15:05:53;18.32;42.05
52656;SHT85;35474;51.032;6.998;2022-09-30T15:08:20;18.88;40.86
52656;SHT85;35474;51.032;6.998;2022-09-30T15:10:48;18.64;40.83
52656;SHT85;35474;51.032;6.998;2022-09-30T15:13:17;19.18;40.55
52656;SHT85;35474;51.032;6.998;2022-09-30T15:15:46;19.26;39.84
52656;SHT85;35474;51.032;6.998;2022-09-30T15:21:15;18.46;42.09
52656;SHT85;35474;51.032;6.998;2022-09-30T15:23:44;18.57;41.42
52656;SHT85;35474;51.032;6.998;2022-09-30T15:26:13;18.33;41.51
52656;SHT85;35474;51.032;6.998;2022-09-30T15:28:50;18.34;41.81
52656;SHT85;35474;51.032;6.998;2022-09-30T15:31:26;18.30;42.33
52656;SHT85;35474;51.032;6.998;2022-09-30T15:34:02;18.47;42.28
52656;SHT85;35474;51.032;6.998;2022-09-30T15:36:30;18.60;41.40
52656;SHT85;35474;51.032;6.998;2022-09-30T15:38:57;18.27;42.75
52656;SHT85;35474;51.032;6.998;2022-09-30T15:41:24;18.41;41.97
52656;SHT85;35474;51.032;6.998;2022-09-30T15:43:51;18.51;42.37
52656;SHT85;35474;51.032;6.998;2022-09-30T15:46:26;18.25;43.21
52656;SHT85;35474;51.032;6.998;2022-09-30T15:49:10;17.65;44.49
52656;SHT85;35474;51.032;6.998;2022-09-30T16:01:11;17.96;43.93
52656;SHT85;35474;51.032;6.998;2022-09-30T16:03:51;17.62;44.43
52656;SHT85;35474;51.032;6.998;2022-09-30T16:06:27;17.58;44.69
52656;SHT85;35474;51.032;6.998;2022-09-30T16:09:17;17.47;44.42
52656;SHT85;35474;51.032;6.998;2022-09-30T16:11:57;17.34;44.67
52656;SHT85;35474;51.032;6.998;2022-09-30T16:14:29;17.24;45.42
52656;SHT85;35474;51.032;6.998;2022-09-30T16:16:59;17.31;45.50
52656;SHT85;35474;51.032;6.998;2022-09-30T16:19:28;17.30;45.34
52656;SHT85;35474;51.032;6.998;2022-09-30T16:21:55;17.24;45.47
52656;SHT85;35474;51.032;6.998;2022-09-30T16:26:49;17.34;45.81
52656;SHT85;35474;51.032;6.998;2022-09-30T16:29:17;17.23;46.20
52656;SHT85;35474;51.032;6.998;2022-09-30T16:31:44;17.17;46.35
52656;SHT85;35474;51.032;6.998;2022-09-30T16:36:51;17.09;46.70
52656;SHT85;35474;51.032;6.998;2022-09-30T16:39:19;16.93;46.87
52656;SHT85;35474;51.032;6.998;2022-09-30T16:41:47;17.07;46.85
52656;SHT85;35474;51.032;6.998;2022-09-30T16:44:15;16.99;46.82
52656;SHT85;35474;51.032;6.998;2022-09-30T16:46:41;17.00;46.75
52656;SHT85;35474;51.032;6.998;2022-09-30T16:49:11;16.96;47.17
52656;SHT85;35474;51.032;6.998;2022-09-30T16:51:41;16.92;47.46
52656;SHT85;35474;51.032;6.998;2022-09-30T16:54:09;16.86;47.21
52656;SHT85;35474;51.032;6.998;2022-09-30T16:56:36;16.88;47.66
52656;SHT85;35474;51.032;6.998;2022-09-30T16:59:08;16.89;47.82
52656;SHT85;35474;51.032;6.998;2022-09-30T17:01:38;16.86;48.08
52656;SHT85;35474;51.032;6.998;2022-09-30T17:04:05;16.89;47.67
52656;SHT85;35474;51.032;6.998;2022-09-30T17:06:32;16.83;48.23
52656;SHT85;35474;51.032;6.998;2022-09-30T17:08:59;16.72;48.55
52656;SHT85;35474;51.032;6.998;2022-09-30T17:11:27;16.67;48.82
52656;SHT85;35474;51.032;6.998;2022-09-30T17:14:02;16.51;49.57
52656;SHT85;35474;51.032;6.998;2022-09-30T17:16:29;16.54;49.78
52656;SHT85;35474;51.032;6.998;2022-09-30T17:18:56;16.44;49.83
52656;SHT85;35474;51.032;6.998;2022-09-30T17:21:24;16.38;49.97
52656;SHT85;35474;51.032;6.998;2022-09-30T17:23:52;16.38;49.85
52656;SHT85;35474;51.032;6.998;2022-09-30T17:26:20;16.18;50.72
52656;SHT85;35474;51.032;6.998;2022-09-30T17:28:47;16.18;50.77
52656;SHT85;35474;51.032;6.998;2022-09-30T17:31:14;16.13;51.42
52656;SHT85;35474;51.032;6.998;2022-09-30T17:33:41;16.06;51.59
52656;SHT85;35474;51.032;6.998;2022-09-30T17:36:08;16.06;51.69
52656;SHT85;35474;51.032;6.998;2022-09-30T17:38:38;16.07;51.68
52656;SHT85;35474;51.032;6.998;2022-09-30T17:41:05;16.17;51.41
52656;SHT85;35474;51.032;6.998;2022-09-30T17:43:50;16.07;51.79
52656;SHT85;35474;51.032;6.998;2022-09-30T17:46:17;16.06;51.85
52656;SHT85;35474;51.032;6.998;2022-09-30T17:48:48;16.01;51.91
52656;SHT85;35474;51.032;6.998;2022-09-30T17:51:16;16.04;51.38
52656;SHT85;35474;51.032;6.998;2022-09-30T17:53:44;15.87;52.47
52656;SHT85;35474;51.032;6.998;2022-09-30T17:57:34;15.65;53.55
52656;SHT85;35474;51.032;6.998;2022-09-30T18:00:03;15.62;53.61
52656;SHT85;35474;51.032;6.998;2022-09-30T18:02:30;15.61;53.41
52656;SHT85;35474;51.032;6.998;2022-09-30T18:04:57;15.55;53.55
52656;SHT85;35474;51.032;6.998;2022-09-30T18:07:24;15.58;53.41
52656;SHT85;35474;51.032;6.998;2022-09-30T18:09:53;15.59;53.43
52656;SHT85;35474;51.032;6.998;2022-09-30T18:12:19;15.49;53.55
52656;SHT85;35474;51.032;6.998;2022-09-30T18:14:46;15.38;53.93
52656;SHT85;35474;51.032;6.998;2022-09-30T18:17:13;15.30;54.29
52656;SHT85;35474;51.032;6.998;2022-09-30T18:19:40;15.31;54.34
52656;SHT85;35474;51.032;6.998;2022-09-30T18:22:06;15.28;54.35
52656;SHT85;35474;51.032;6.998;2022-09-30T18:24:33;15.22;54.56
52656;SHT85;35474;51.032;6.998;2022-09-30T18:27:18;15.12;54.91
52656;SHT85;35474;51.032;6.998;2022-09-30T18:29:47;15.12;54.92
52656;SHT85;35474;51.032;6.998;2022-09-30T18:32:14;15.01;55.36
52656;SHT85;35474;51.032;6.998;2022-09-30T18:34:42;15.01;55.68
52656;SHT85;35474;51.032;6.998;2022-09-30T18:37:09;14.95;55.90
52656;SHT85;35474;51.032;6.998;2022-09-30T18:39:36;15.00;55.96
52656;SHT85;35474;51.032;6.998;2022-09-30T18:42:03;14.93;56.41
52656;SHT85;35474;51.032;6.998;2022-09-30T18:44:30;14.80;56.95
52656;SHT85;35474;51.032;6.998;2022-09-30T18:46:58;14.70;57.45
52656;SHT85;35474;51.032;6.998;2022-09-30T18:49:24;14.73;57.51
52656;SHT85;35474;51.032;6.998;2022-09-30T18:51:51;14.63;57.94
52656;SHT85;35474;51.032;6.998;2022-09-30T18:54:17;14.63;58.09
52656;SHT85;35474;51.032;6.998;2022-09-30T18:56:44;14.52;58.67
52656;SHT85;35474;51.032;6.998;2022-09-30T18:59:11;14.57;58.50
52656;SHT85;35474;51.032;6.998;2022-09-30T19:01:45;14.57;58.51
52656;SHT85;35474;51.032;6.998;2022-09-30T19:04:13;14.57;58.50
52656;SHT85;35474;51.032;6.998;2022-09-30T19:06:41;14.40;59.37
52656;SHT85;35474;51.032;6.998;2022-09-30T19:09:08;14.40;59.26
52656;SHT85;35474;51.032;6.998;2022-09-30T19:11:35;14.43;59.27
52656;SHT85;35474;51.032;6.998;2022-09-30T19:14:02;14.39;59.54
52656;SHT85;35474;51.032;6.998;2022-09-30T19:16:30;14.25;59.87
52656;SHT85;35474;51.032;6.998;2022-09-30T19:19:04;14.19;60.27
52656;SHT85;35474;51.032;6.998;2022-09-30T19:21:36;14.09;60.66
52656;SHT85;35474;51.032;6.998;2022-09-30T19:24:04;14.00;60.88
52656;SHT85;35474;51.032;6.998;2022-09-30T19:26:32;14.01;60.92
52656;SHT85;35474;51.032;6.998;2022-09-30T19:29:02;13.94;61.38
52656;SHT85;35474;51.032;6.998;2022-09-30T19:31:30;13.97;61.30
52656;SHT85;35474;51.032;6.998;2022-09-30T19:33:59;13.94;61.44
52656;SHT85;35474;51.032;6.998;2022-09-30T19:36:26;13.71;62.17
52656;SHT85;35474;51.032;6.998;2022-09-30T19:38:58;13.70;62.45
52656;SHT85;35474;51.032;6.998;2022-09-30T19:41:36;13.53;63.21
52656;SHT85;35474;51.032;6.998;2022-09-30T19:44:03;13.44;63.59
52656;SHT85;35474;51.032;6.998;2022-09-30T19:46:29;13.37;63.82
52656;SHT85;35474;51.032;6.998;2022-09-30T19:48:56;13.43;63.56
52656;SHT85;35474;51.032;6.998;2022-09-30T19:51:26;13.37;64.07
52656;SHT85;35474;51.032;6.998;2022-09-30T19:53:58;13.34;64.07
52656;SHT85;35474;51.032;6.998;2022-09-30T19:56:32;13.26;64.34
52656;SHT85;35474;51.032;6.998;2022-09-30T19:59:00;13.27;64.35